Terminal Aerodrome Forecast
Issued by NWS Quad Cities IA IL

Home | Current Version | Previous Version | Graphics & Text | Print | Product List | Glossary On
Versions: 1 2 3 4 5 6 7 8 9 10 11 12 13 14 15 16 17
000
FTUS43 KDVN 240500
TAFMLI
TAF
KMLI 240520Z 2406/2506 07002KT P6SM SKC
      TEMPO 2408/2412 2SM BR SCT001
     FM241600 14004KT P6SM FEW040
     FM250500 16006KT P6SM BKN200=

USA.gov is the U.S. government's official web portal to all federal, state and local government web resources and services.